Bridge of Weir, United Kingdom
Current Conditions -  °F | °C
As of 4:20 PM on Wednesday 22 Oct 2014 (Local Time) from EGPF Reporting Station
Overcast Overcast  
Wind Chill: 12°   Ceiling: 1100
Heat Index: 12°   Visibility: 6mi
Dew Point: 10°   Wind: 10mph
Humidity: 88%   Direction: 200°SSW
Pressure: 30"   Gusts: NA
Location:  55.85°N, 4.58°W
Report Text: EGPF 221520Z AUTO 20009KT 9999 OVC011/// //////TCU 12/10 Q1016
Loading
Personal Weather Stations






























Interactive Weather Map
Tropical Storm Tracking
New forecast layout! Learn more

10-Day Weather Forecast

Advertisements
Track Severe Weather on mobile